Ixworth, United Kingdom
Current Conditions -  °F | °C
As of 9:24 PM on Friday 24 Oct 2014 (Local Time) from EGUL Reporting Station
Overcast Overcast  
Wind Chill: 55°   Ceiling: 1400
Heat Index: 55°   Visibility: 6mi
Dew Point: 55°   Wind: 6mph
Humidity: 100%   Direction: 310°NW
Pressure: 29.91"   Gusts: NA
Location:  52.3°N, 0.83°E
Report Text: EGUL 242024Z AUTO 31005KT 9999 FEW010 BKN014 BKN038 OVC065 13/13 A2991 RMK AO2 CIG 014V039
Loading
Personal Weather Stations






























Interactive Weather Map
Tropical Storm Tracking
New forecast layout! Learn more

10-Day Weather Forecast

Advertisements
Track Severe Weather on mobile